Terminal Aerodrome Forecast
Issued by NWS

Home | Current Version | Previous Version | Text Only | Print | Product List | Glossary On
Versions: 1 2 3 4 5 6 7 8 9 10 11 12 13 14 15 16 17 18 19 20 21
000
FTUS41 KBTV 121420 AAB
TAFRUT
TAF AMD
KRUT 121420Z 1214/1312 14013G21KT 1SM -SN BR OVC010
      TEMPO 1214/1218 1/2SM SN FG BKN007 OVC010
     FM122300 17004KT 1 1/2SM -SN BR OVC010
     FM130100 VRB03KT 1 1/2SM -SN BR OVC010
     FM130400 27007KT 1 1/2SM -SN BR OVC020=

USA.gov is the U.S. government's official web portal to all federal, state and local government web resources and services.